Time,TemperatureF,DewpointF,PressureIn,WindDirection,WindDirectionDegrees,WindSpeedMPH,WindSpeedGustMPH,Humidity,HourlyPrecipIn,Conditions,Clouds,dailyrainin,SolarRadiationWatts/m^2,SoftwareType,DateUTC
2013-03-11 00:02:00,16.0,13.0,-100.00,SSW,193,2.0,3.0,86,0.00,,,-99.99,0.000000,,2013-03-11 06:02:00,
2013-03-11 00:12:00,16.0,13.0,-100.00,SSW,193,2.0,3.0,86,0.00,,,-99.99,0.000000,,2013-03-11 06:12:00,
2013-03-11 00:22:00,14.0,11.0,-100.00,SW,221,2.0,2.0,89,0.00,,,0.00,0.000000,,2013-03-11 06:22:00,
2013-03-11 00:42:00,14.0,11.0,-100.00,SW,221,2.0,2.0,89,0.00,,,0.00,0.000000,,2013-03-11 06:42:00,
2013-03-11 00:53:00,14.0,11.0,-100.00,SW,221,2.0,2.0,89,0.00,,,0.00,0.000000,,2013-03-11 06:53:00,
2013-03-11 01:02:00,14.0,11.0,-100.00,SW,221,2.0,2.0,89,0.00,,,0.00,0.000000,,2013-03-11 07:02:00,
2013-03-11 01:12:00,14.0,11.0,-100.00,SW,221,2.0,2.0,89,0.00,,,0.00,0.000000,,2013-03-11 07:12:00,
2013-03-11 01:22:00,15.0,12.0,-100.00,WNW,299,0.0,2.0,88,0.00,,,0.00,0.000000,,2013-03-11 07:22:00,
2013-03-11 01:42:00,15.0,12.0,-100.00,WNW,299,0.0,2.0,88,0.00,,,0.00,0.000000,,2013-03-11 07:42:00,
2013-03-11 01:52:00,15.0,12.0,-100.00,WNW,299,0.0,2.0,88,0.00,,,0.00,0.000000,,2013-03-11 07:52:00,
2013-03-11 02:02:00,15.0,12.0,-100.00,WNW,299,0.0,2.0,88,0.00,,,0.00,0.000000,,2013-03-11 08:02:00,
2013-03-11 02:12:00,15.0,12.0,-100.00,WNW,299,0.0,2.0,88,0.00,,,0.00,0.000000,,2013-03-11 08:12:00,
2013-03-11 02:22:00,13.0,11.0,-100.00,West,266,0.0,2.0,93,0.00,,,0.00,0.000000,,2013-03-11 08:22:00,
2013-03-11 02:42:00,13.0,11.0,-100.00,West,266,0.0,2.0,93,0.00,,,0.00,0.000000,,2013-03-11 08:42:00,
2013-03-11 02:52:00,13.0,11.0,-100.00,West,266,0.0,2.0,93,0.00,,,0.00,0.000000,,2013-03-11 08:52:00,
2013-03-11 03:02:00,13.0,11.0,-100.00,West,266,0.0,2.0,93,0.00,,,0.00,0.000000,,2013-03-11 09:02:00,
2013-03-11 03:12:00,13.0,11.0,-100.00,West,266,0.0,2.0,93,0.00,,,0.00,0.000000,,2013-03-11 09:12:00,
2013-03-11 03:22:00,14.0,13.0,-100.00,SSW,200,1.0,2.0,94,0.00,,,0.00,0.000000,,2013-03-11 09:22:00,
2013-03-11 03:42:00,14.0,13.0,-100.00,SSW,200,1.0,2.0,94,0.00,,,0.00,0.000000,,2013-03-11 09:42:00,
2013-03-11 03:52:00,14.0,13.0,-100.00,SSW,200,1.0,2.0,94,0.00,,,0.00,0.000000,,2013-03-11 09:52:00,
2013-03-11 04:02:00,14.0,13.0,-100.00,SSW,200,1.0,2.0,94,0.00,,,0.00,0.000000,,2013-03-11 10:02:00,
2013-03-11 04:12:00,14.0,13.0,-100.00,SSW,200,1.0,2.0,94,0.00,,,0.00,0.000000,,2013-03-11 10:12:00,
2013-03-11 04:22:00,13.0,12.0,-100.00,SE,126,0.0,2.0,94,0.00,,,0.00,0.000000,,2013-03-11 10:22:00,
2013-03-11 04:42:00,13.0,12.0,-100.00,SE,126,0.0,2.0,94,0.00,,,0.00,0.000000,,2013-03-11 10:42:00,
2013-03-11 04:52:00,13.0,12.0,-100.00,SE,126,0.0,2.0,94,0.00,,,0.00,0.000000,,2013-03-11 10:52:00,
2013-03-11 05:02:00,13.0,12.0,-100.00,SE,126,0.0,2.0,94,0.00,,,0.00,0.000000,,2013-03-11 11:02:00,
2013-03-11 05:12:00,13.0,12.0,-100.00,SE,126,0.0,2.0,94,0.00,,,0.00,0.000000,,2013-03-11 11:12:00,
2013-03-11 05:22:00,14.0,12.0,-100.00,SSW,195,1.0,3.0,91,0.00,,,-99.99,0.000000,,2013-03-11 11:22:00,
2013-03-11 05:43:00,14.0,12.0,-100.00,SSW,195,1.0,3.0,91,0.00,,,-99.99,0.000000,,2013-03-11 11:43:00,
2013-03-11 05:53:00,14.0,12.0,-100.00,SSW,195,1.0,3.0,91,0.00,,,-99.99,0.000000,,2013-03-11 11:53:00,
2013-03-11 06:02:00,14.0,12.0,-100.00,SSW,195,1.0,3.0,91,0.00,,,-99.99,0.000000,,2013-03-11 12:02:00,
2013-03-11 06:12:00,14.0,12.0,-100.00,SSW,195,1.0,3.0,91,0.00,,,-99.99,0.000000,,2013-03-11 12:12:00,
2013-03-11 06:22:00,13.0,11.0,-100.00,West,268,1.0,2.0,92,0.00,,,-99.99,0.000000,,2013-03-11 12:22:00,
2013-03-11 06:43:00,13.0,11.0,-100.00,West,268,1.0,2.0,92,0.00,,,-99.99,0.000000,,2013-03-11 12:43:00,
2013-03-11 06:53:00,13.0,11.0,-100.00,West,268,1.0,2.0,92,0.00,,,-99.99,0.000000,,2013-03-11 12:53:00,
2013-03-11 07:02:00,13.0,11.0,-100.00,West,268,1.0,2.0,92,0.00,,,-99.99,0.000000,,2013-03-11 13:02:00,
2013-03-11 07:12:00,13.0,11.0,-100.00,West,268,1.0,2.0,92,0.00,,,-99.99,0.000000,,2013-03-11 13:12:00,
2013-03-11 07:22:00,10.0,9.0,-100.00,NE,56,0.0,2.0,95,0.00,,,0.00,0.000000,,2013-03-11 13:22:00,
2013-03-11 07:43:00,10.0,9.0,-100.00,NE,56,0.0,2.0,95,0.00,,,0.00,0.000000,,2013-03-11 13:43:00,
2013-03-11 07:53:00,10.0,9.0,-100.00,NE,56,0.0,2.0,95,0.00,,,0.00,0.000000,,2013-03-11 13:53:00,
2013-03-11 08:02:00,10.0,9.0,-100.00,NE,56,0.0,2.0,95,0.00,,,0.00,0.000000,,2013-03-11 14:02:00,
2013-03-11 08:12:00,10.0,9.0,-100.00,NE,56,0.0,2.0,95,0.00,,,0.00,0.000000,,2013-03-11 14:12:00,
2013-03-11 08:22:00,15.0,11.0,-100.00,ESE,116,1.0,2.0,85,0.00,,,0.00,45.000000,,2013-03-11 14:22:00,
2013-03-11 08:43:00,15.0,11.0,-100.00,ESE,116,1.0,2.0,85,0.00,,,0.00,45.000000,,2013-03-11 14:43:00,
2013-03-11 08:53:00,15.0,11.0,-100.00,ESE,116,1.0,2.0,85,0.00,,,0.00,45.000000,,2013-03-11 14:53:00,
2013-03-11 09:02:00,15.0,11.0,-100.00,ESE,116,1.0,2.0,85,0.00,,,0.00,45.000000,,2013-03-11 15:02:00,
2013-03-11 09:12:00,15.0,11.0,-100.00,ESE,116,1.0,2.0,85,0.00,,,0.00,45.000000,,2013-03-11 15:12:00,
2013-03-11 09:22:00,23.0,14.0,-100.00,SW,225,2.0,3.0,67,0.00,,,0.00,316.000000,,2013-03-11 15:22:00,
2013-03-11 09:43:00,23.0,14.0,-100.00,SW,225,2.0,3.0,67,0.00,,,0.00,316.000000,,2013-03-11 15:43:00,
2013-03-11 09:53:00,23.0,14.0,-100.00,SW,225,2.0,3.0,67,0.00,,,0.00,316.000000,,2013-03-11 15:53:00,
2013-03-11 10:02:00,23.0,14.0,-100.00,SW,225,2.0,3.0,67,0.00,,,0.00,316.000000,,2013-03-11 16:02:00,
2013-03-11 10:12:00,23.0,14.0,-100.00,SW,225,2.0,3.0,67,0.00,,,0.00,316.000000,,2013-03-11 16:12:00,
2013-03-11 10:22:00,29.0,13.0,-100.00,WSW,250,1.0,2.0,51,0.00,,,0.00,560.000000,,2013-03-11 16:22:00,
2013-03-11 10:43:00,29.0,13.0,-100.00,WSW,250,1.0,2.0,51,0.00,,,0.00,560.000000,,2013-03-11 16:43:00,
2013-03-11 10:52:00,29.0,13.0,-100.00,WSW,250,1.0,2.0,51,0.00,,,0.00,560.000000,,2013-03-11 16:52:00,
2013-03-11 11:02:00,29.0,13.0,-100.00,WSW,250,1.0,2.0,51,0.00,,,0.00,560.000000,,2013-03-11 17:02:00,
2013-03-11 11:14:00,29.0,13.0,-100.00,WSW,250,1.0,2.0,51,0.00,,,0.00,560.000000,,2013-03-11 17:14:00,
2013-03-11 11:22:00,41.0,15.0,-100.00,SSW,196,0.0,3.0,35,0.00,,,0.00,750.000000,,2013-03-11 17:22:00,
2013-03-11 11:42:00,41.0,15.0,-100.00,SSW,196,0.0,3.0,35,0.00,,,0.00,750.000000,,2013-03-11 17:42:00,
2013-03-11 11:53:00,41.0,15.0,-100.00,SSW,196,0.0,3.0,35,0.00,,,0.00,750.000000,,2013-03-11 17:53:00,
2013-03-11 12:02:00,41.0,15.0,-100.00,SSW,196,0.0,3.0,35,0.00,,,0.00,750.000000,,2013-03-11 18:02:00,
2013-03-11 12:12:00,41.0,15.0,-100.00,SSW,196,0.0,3.0,35,0.00,,,0.00,750.000000,,2013-03-11 18:12:00,
2013-03-11 12:22:00,33.0,12.0,-100.00,WNW,287,2.0,3.0,42,0.00,,,0.00,876.000000,,2013-03-11 18:22:00,
2013-03-11 12:53:00,33.0,12.0,-100.00,WNW,287,2.0,3.0,42,0.00,,,0.00,876.000000,,2013-03-11 18:53:00,
2013-03-11 13:02:00,33.0,12.0,-100.00,WNW,287,2.0,3.0,42,0.00,,,0.00,876.000000,,2013-03-11 19:02:00,
2013-03-11 13:12:00,33.0,12.0,-100.00,WNW,287,2.0,3.0,42,0.00,,,0.00,876.000000,,2013-03-11 19:12:00,
2013-03-11 13:22:00,32.0,14.0,-100.00,WNW,300,3.0,7.0,47,0.00,,,0.00,883.000000,,2013-03-11 19:22:00,
2013-03-11 13:43:00,32.0,14.0,-100.00,WNW,300,3.0,7.0,47,0.00,,,0.00,883.000000,,2013-03-11 19:43:00,
2013-03-11 13:53:00,32.0,14.0,-100.00,WNW,300,3.0,7.0,47,0.00,,,0.00,883.000000,,2013-03-11 19:53:00,
2013-03-11 14:02:00,32.0,14.0,-100.00,WNW,300,3.0,7.0,47,0.00,,,0.00,883.000000,,2013-03-11 20:02:00,
2013-03-11 14:12:00,32.0,14.0,-100.00,WNW,300,3.0,7.0,47,0.00,,,0.00,883.000000,,2013-03-11 20:12:00,
2013-03-11 14:22:00,34.0,14.0,-100.00,NNW,339,2.0,6.0,43,0.00,,,0.00,853.000000,,2013-03-11 20:22:00,
2013-03-11 14:44:00,34.0,14.0,-100.00,NNW,339,2.0,6.0,43,0.00,,,0.00,853.000000,,2013-03-11 20:44:00,
2013-03-11 14:53:00,34.0,14.0,-100.00,NNW,339,2.0,6.0,43,0.00,,,0.00,853.000000,,2013-03-11 20:53:00,
2013-03-11 15:03:00,34.0,14.0,-100.00,NNW,339,2.0,6.0,43,0.00,,,0.00,853.000000,,2013-03-11 21:03:00,
2013-03-11 15:12:00,34.0,14.0,-100.00,NNW,339,2.0,6.0,43,0.00,,,0.00,853.000000,,2013-03-11 21:12:00,
2013-03-11 15:22:00,34.0,15.0,-100.00,WNW,298,2.0,5.0,46,0.00,,,0.00,801.000000,,2013-03-11 21:22:00,
2013-03-11 15:44:00,34.0,15.0,-100.00,WNW,298,2.0,5.0,46,0.00,,,0.00,801.000000,,2013-03-11 21:44:00,
2013-03-11 16:03:00,34.0,15.0,-100.00,WNW,298,2.0,5.0,46,0.00,,,0.00,801.000000,,2013-03-11 22:03:00,
2013-03-11 16:12:00,34.0,15.0,-100.00,WNW,298,2.0,5.0,46,0.00,,,0.00,801.000000,,2013-03-11 22:12:00,
2013-03-11 16:22:00,35.0,16.0,-100.00,WNW,289,2.0,4.0,45,0.00,,,0.00,664.000000,,2013-03-11 22:22:00,
2013-03-11 16:43:00,35.0,16.0,-100.00,WNW,289,2.0,4.0,45,0.00,,,0.00,664.000000,,2013-03-11 22:43:00,
2013-03-11 16:53:00,35.0,16.0,-100.00,WNW,289,2.0,4.0,45,0.00,,,0.00,664.000000,,2013-03-11 22:53:00,
2013-03-11 17:03:00,35.0,16.0,-100.00,WNW,289,2.0,4.0,45,0.00,,,0.00,664.000000,,2013-03-11 23:03:00,
2013-03-11 17:12:00,35.0,16.0,-100.00,WNW,289,2.0,4.0,45,0.00,,,0.00,664.000000,,2013-03-11 23:12:00,
2013-03-11 17:22:00,32.0,14.0,-100.00,West,266,4.0,5.0,47,0.00,,,0.00,460.000000,,2013-03-11 23:22:00,
2013-03-11 17:43:00,32.0,14.0,-100.00,West,266,4.0,5.0,47,0.00,,,0.00,460.000000,,2013-03-11 23:43:00,
2013-03-11 17:53:00,32.0,14.0,-100.00,West,266,4.0,5.0,47,0.00,,,0.00,460.000000,,2013-03-11 23:53:00,
2013-03-11 18:02:00,32.0,14.0,-100.00,West,266,4.0,5.0,47,0.00,,,0.00,460.000000,,2013-03-12 00:02:00,
2013-03-11 18:12:00,32.0,14.0,-100.00,West,266,4.0,5.0,47,0.00,,,0.00,460.000000,,2013-03-12 00:12:00,
2013-03-11 18:22:00,30.0,16.0,-100.00,West,260,7.0,12.0,56,0.00,,,0.00,254.000000,,2013-03-12 00:22:00,
2013-03-11 18:43:00,30.0,16.0,-100.00,West,260,7.0,12.0,56,0.00,,,0.00,254.000000,,2013-03-12 00:43:00,
2013-03-11 18:53:00,30.0,16.0,-100.00,West,260,7.0,12.0,56,0.00,,,0.00,254.000000,,2013-03-12 00:53:00,
2013-03-11 19:02:00,30.0,16.0,-100.00,West,260,7.0,12.0,56,0.00,,,0.00,254.000000,,2013-03-12 01:02:00,
2013-03-11 19:12:00,30.0,16.0,-100.00,West,260,7.0,12.0,56,0.00,,,0.00,254.000000,,2013-03-12 01:12:00,
2013-03-11 19:22:00,30.0,17.0,-100.00,WSW,247,9.0,13.0,57,0.00,,,0.00,52.000000,,2013-03-12 01:22:00,
2013-03-11 19:42:00,30.0,17.0,-100.00,WSW,247,9.0,13.0,57,0.00,,,0.00,52.000000,,2013-03-12 01:42:00,
2013-03-11 19:52:00,30.0,17.0,-100.00,WSW,247,9.0,13.0,57,0.00,,,0.00,52.000000,,2013-03-12 01:52:00,
2013-03-11 20:02:00,30.0,17.0,-100.00,WSW,247,9.0,13.0,57,0.00,,,0.00,52.000000,,2013-03-12 02:02:00,
2013-03-11 20:12:00,30.0,17.0,-100.00,WSW,247,9.0,13.0,57,0.00,,,0.00,52.000000,,2013-03-12 02:12:00,
2013-03-11 20:22:00,30.0,17.0,-100.00,WSW,245,10.0,14.0,59,0.00,,,0.00,0.000000,,2013-03-12 02:22:00,
2013-03-11 20:43:00,30.0,17.0,-100.00,WSW,245,10.0,14.0,59,0.00,,,0.00,0.000000,,2013-03-12 02:43:00,
2013-03-11 20:52:00,30.0,17.0,-100.00,WSW,245,10.0,14.0,59,0.00,,,0.00,0.000000,,2013-03-12 02:52:00,
2013-03-11 21:02:00,30.0,17.0,-100.00,WSW,245,10.0,14.0,59,0.00,,,0.00,0.000000,,2013-03-12 03:02:00,
2013-03-11 21:12:00,30.0,17.0,-100.00,WSW,245,10.0,14.0,59,0.00,,,0.00,0.000000,,2013-03-12 03:12:00,
2013-03-11 21:22:00,26.0,17.0,-100.00,West,270,6.0,15.0,67,0.00,,,0.00,0.000000,,2013-03-12 03:22:00,
2013-03-11 21:43:00,26.0,17.0,-100.00,West,270,6.0,15.0,67,0.00,,,0.00,0.000000,,2013-03-12 03:43:00,
2013-03-11 21:53:00,26.0,17.0,-100.00,West,270,6.0,15.0,67,0.00,,,0.00,0.000000,,2013-03-12 03:53:00,
2013-03-11 22:02:00,26.0,17.0,-100.00,West,270,6.0,15.0,67,0.00,,,0.00,0.000000,,2013-03-12 04:02:00,
2013-03-11 22:13:00,26.0,17.0,-100.00,West,270,6.0,15.0,67,0.00,,,0.00,0.000000,,2013-03-12 04:13:00,
2013-03-11 22:22:00,25.0,16.0,-100.00,West,268,4.0,8.0,69,0.00,,,0.00,0.000000,,2013-03-12 04:22:00,
2013-03-11 22:43:00,25.0,16.0,-100.00,West,268,4.0,8.0,69,0.00,,,0.00,0.000000,,2013-03-12 04:43:00,
2013-03-11 22:52:00,25.0,16.0,-100.00,West,268,4.0,8.0,69,0.00,,,0.00,0.000000,,2013-03-12 04:52:00,
2013-03-11 23:02:00,25.0,16.0,-100.00,West,268,4.0,8.0,69,0.00,,,0.00,0.000000,,2013-03-12 05:02:00,
2013-03-11 23:12:00,25.0,16.0,-100.00,West,268,4.0,8.0,69,0.00,,,0.00,0.000000,,2013-03-12 05:12:00,
2013-03-11 23:22:00,24.0,16.0,-100.00,WSW,254,5.0,6.0,72,0.00,,,0.00,0.000000,,2013-03-12 05:22:00,
2013-03-11 23:42:00,24.0,16.0,-100.00,WSW,254,5.0,6.0,72,0.00,,,0.00,0.000000,,2013-03-12 05:42:00,
2013-03-11 23:52:00,24.0,16.0,-100.00,WSW,254,5.0,6.0,72,0.00,,,0.00,0.000000,,2013-03-12 05:52:00,